sensor_id;sensor_type;location;lat;lon;timestamp;temperature;humidity
31765;DHT22;18338;53.240;8.798;2023-08-08T00:00:28;12.50;99.90
31765;DHT22;18338;53.240;8.798;2023-08-08T00:02:55;12.50;99.90
31765;DHT22;18338;53.240;8.798;2023-08-08T00:05:21;12.60;99.90
31765;DHT22;18338;53.240;8.798;2023-08-08T00:07:48;12.60;99.90
31765;DHT22;18338;53.240;8.798;2023-08-08T00:10:15;12.60;99.90
31765;DHT22;18338;53.240;8.798;2023-08-08T00:12:42;12.50;99.90
31765;DHT22;18338;53.240;8.798;2023-08-08T00:15:09;12.60;99.90
31765;DHT22;18338;53.240;8.798;2023-08-08T00:17:36;12.50;99.90
31765;DHT22;18338;53.240;8.798;2023-08-08T00:20:03;12.60;99.90
31765;DHT22;18338;53.240;8.798;2023-08-08T00:22:30;12.60;99.90
31765;DHT22;18338;53.240;8.798;2023-08-08T00:24:57;12.50;99.90
31765;DHT22;18338;53.240;8.798;2023-08-08T00:27:24;12.50;99.90
31765;DHT22;18338;53.240;8.798;2023-08-08T00:29:51;12.50;99.90
31765;DHT22;18338;53.240;8.798;2023-08-08T00:32:19;12.50;99.90
31765;DHT22;18338;53.240;8.798;2023-08-08T00:34:46;12.60;99.90
31765;DHT22;18338;53.240;8.798;2023-08-08T00:37:13;12.60;99.90
31765;DHT22;18338;53.240;8.798;2023-08-08T00:39:40;12.70;99.90
31765;DHT22;18338;53.240;8.798;2023-08-08T00:42:08;12.70;99.90
31765;DHT22;18338;53.240;8.798;2023-08-08T00:44:35;12.60;99.90
31765;DHT22;18338;53.240;8.798;2023-08-08T00:47:04;12.60;99.90
31765;DHT22;18338;53.240;8.798;2023-08-08T00:49:31;12.60;99.90
31765;DHT22;18338;53.240;8.798;2023-08-08T00:51:57;12.60;99.90
31765;DHT22;18338;53.240;8.798;2023-08-08T00:54:24;12.60;99.90
31765;DHT22;18338;53.240;8.798;2023-08-08T00:56:51;12.60;99.90
31765;DHT22;18338;53.240;8.798;2023-08-08T00:59:19;12.60;99.90
31765;DHT22;18338;53.240;8.798;2023-08-08T01:01:46;12.50;99.90
31765;DHT22;18338;53.240;8.798;2023-08-08T01:04:13;12.60;99.90
31765;DHT22;18338;53.240;8.798;2023-08-08T01:09:44;12.60;99.90
31765;DHT22;18338;53.240;8.798;2023-08-08T01:12:13;12.60;99.90
31765;DHT22;18338;53.240;8.798;2023-08-08T01:14:42;12.70;99.90
31765;DHT22;18338;53.240;8.798;2023-08-08T01:17:11;12.60;99.90
31765;DHT22;18338;53.240;8.798;2023-08-08T01:19:39;12.70;99.90
31765;DHT22;18338;53.240;8.798;2023-08-08T01:22:09;12.60;99.90
31765;DHT22;18338;53.240;8.798;2023-08-08T01:24:41;12.60;99.90
31765;DHT22;18338;53.240;8.798;2023-08-08T01:27:08;12.70;99.90
31765;DHT22;18338;53.240;8.798;2023-08-08T01:29:34;12.80;99.90
31765;DHT22;18338;53.240;8.798;2023-08-08T01:32:01;12.90;99.90
31765;DHT22;18338;53.240;8.798;2023-08-08T01:34:28;12.90;99.90
31765;DHT22;18338;53.240;8.798;2023-08-08T01:37:14;12.90;99.90
31765;DHT22;18338;53.240;8.798;2023-08-08T01:39:44;13.00;99.90
31765;DHT22;18338;53.240;8.798;2023-08-08T01:42:14;13.10;99.90
31765;DHT22;18338;53.240;8.798;2023-08-08T01:44:41;13.20;99.90
31765;DHT22;18338;53.240;8.798;2023-08-08T01:47:09;13.20;99.90
31765;DHT22;18338;53.240;8.798;2023-08-08T01:49:35;13.10;99.90
31765;DHT22;18338;53.240;8.798;2023-08-08T01:52:02;13.00;99.90
31765;DHT22;18338;53.240;8.798;2023-08-08T01:54:29;12.90;99.90
31765;DHT22;18338;53.240;8.798;2023-08-08T01:56:56;12.90;99.90
31765;DHT22;18338;53.240;8.798;2023-08-08T01:59:23;12.90;99.90
31765;DHT22;18338;53.240;8.798;2023-08-08T02:01:49;12.90;99.90
31765;DHT22;18338;53.240;8.798;2023-08-08T02:04:16;12.90;99.90
31765;DHT22;18338;53.240;8.798;2023-08-08T02:06:43;12.90;99.90
31765;DHT22;18338;53.240;8.798;2023-08-08T02:09:10;12.90;99.90
31765;DHT22;18338;53.240;8.798;2023-08-08T02:11:36;12.90;99.90
31765;DHT22;18338;53.240;8.798;2023-08-08T02:14:03;12.90;99.90
31765;DHT22;18338;53.240;8.798;2023-08-08T02:16:30;12.90;99.90
31765;DHT22;18338;53.240;8.798;2023-08-08T02:18:57;12.90;99.90
31765;DHT22;18338;53.240;8.798;2023-08-08T02:21:23;12.90;99.90
31765;DHT22;18338;53.240;8.798;2023-08-08T02:23:50;13.00;99.90
31765;DHT22;18338;53.240;8.798;2023-08-08T02:26:17;13.00;99.90
31765;DHT22;18338;53.240;8.798;2023-08-08T02:28:44;13.00;99.90
31765;DHT22;18338;53.240;8.798;2023-08-08T02:31:10;13.00;99.90
31765;DHT22;18338;53.240;8.798;2023-08-08T02:33:37;13.00;99.90
31765;DHT22;18338;53.240;8.798;2023-08-08T02:36:04;13.00;99.90
31765;DHT22;18338;53.240;8.798;2023-08-08T02:38:31;13.00;99.90
31765;DHT22;18338;53.240;8.798;2023-08-08T02:40:57;13.00;99.90
31765;DHT22;18338;53.240;8.798;2023-08-08T02:43:24;12.90;99.90
31765;DHT22;18338;53.240;8.798;2023-08-08T02:45:51;12.90;99.90
31765;DHT22;18338;53.240;8.798;2023-08-08T02:48:17;12.90;99.90
31765;DHT22;18338;53.240;8.798;2023-08-08T02:50:44;12.90;99.90
31765;DHT22;18338;53.240;8.798;2023-08-08T02:53:11;12.90;99.90
31765;DHT22;18338;53.240;8.798;2023-08-08T02:55:38;12.80;99.90
31765;DHT22;18338;53.240;8.798;2023-08-08T02:58:04;12.80;99.90
31765;DHT22;18338;53.240;8.798;2023-08-08T03:00:31;12.80;99.90
31765;DHT22;18338;53.240;8.798;2023-08-08T03:02:58;12.80;99.90
31765;DHT22;18338;53.240;8.798;2023-08-08T03:05:24;12.80;99.90
31765;DHT22;18338;53.240;8.798;2023-08-08T03:07:51;12.80;99.90
31765;DHT22;18338;53.240;8.798;2023-08-08T03:10:18;12.80;99.90
31765;DHT22;18338;53.240;8.798;2023-08-08T03:12:45;12.80;99.90
31765;DHT22;18338;53.240;8.798;2023-08-08T03:15:11;12.90;99.90
31765;DHT22;18338;53.240;8.798;2023-08-08T03:17:38;12.90;99.90
31765;DHT22;18338;53.240;8.798;2023-08-08T03:20:06;12.90;99.90
31765;DHT22;18338;53.240;8.798;2023-08-08T03:22:33;12.90;99.90
31765;DHT22;18338;53.240;8.798;2023-08-08T03:25:00;12.90;99.90
31765;DHT22;18338;53.240;8.798;2023-08-08T03:27:27;12.90;99.90
31765;DHT22;18338;53.240;8.798;2023-08-08T03:29:53;12.90;99.90
31765;DHT22;18338;53.240;8.798;2023-08-08T03:32:20;12.90;99.90
31765;DHT22;18338;53.240;8.798;2023-08-08T03:34:47;12.90;99.90
31765;DHT22;18338;53.240;8.798;2023-08-08T03:37:14;12.90;99.90
31765;DHT22;18338;53.240;8.798;2023-08-08T03:39:40;12.90;99.90
31765;DHT22;18338;53.240;8.798;2023-08-08T03:42:08;12.90;99.90
31765;DHT22;18338;53.240;8.798;2023-08-08T03:44:34;12.90;99.90
31765;DHT22;18338;53.240;8.798;2023-08-08T03:47:01;12.80;99.90
31765;DHT22;18338;53.240;8.798;2023-08-08T03:49:44;12.90;99.90
31765;DHT22;18338;53.240;8.798;2023-08-08T03:52:11;12.90;99.90
31765;DHT22;18338;53.240;8.798;2023-08-08T03:54:38;12.90;99.90
31765;DHT22;18338;53.240;8.798;2023-08-08T03:57:05;12.90;99.90
31765;DHT22;18338;53.240;8.798;2023-08-08T03:59:32;12.90;99.90
31765;DHT22;18338;53.240;8.798;2023-08-08T04:01:59;12.90;99.90
31765;DHT22;18338;53.240;8.798;2023-08-08T04:04:27;12.90;99.90
31765;DHT22;18338;53.240;8.798;2023-08-08T04:06:53;12.90;99.90
31765;DHT22;18338;53.240;8.798;2023-08-08T04:09:20;12.90;99.90
31765;DHT22;18338;53.240;8.798;2023-08-08T04:11:47;12.90;99.90
31765;DHT22;18338;53.240;8.798;2023-08-08T04:14:14;13.00;99.90
31765;DHT22;18338;53.240;8.798;2023-08-08T04:16:40;13.00;99.90
31765;DHT22;18338;53.240;8.798;2023-08-08T04:19:07;13.00;99.90
31765;DHT22;18338;53.240;8.798;2023-08-08T04:21:34;13.00;99.90
31765;DHT22;18338;53.240;8.798;2023-08-08T04:24:01;13.00;99.90
31765;DHT22;18338;53.240;8.798;2023-08-08T04:26:31;13.00;99.90
31765;DHT22;18338;53.240;8.798;2023-08-08T04:28:58;13.00;99.90
31765;DHT22;18338;53.240;8.798;2023-08-08T04:31:25;13.00;99.90
31765;DHT22;18338;53.240;8.798;2023-08-08T04:33:52;13.00;99.90
31765;DHT22;18338;53.240;8.798;2023-08-08T04:36:27;13.00;99.90
31765;DHT22;18338;53.240;8.798;2023-08-08T04:38:54;13.10;99.90
31765;DHT22;18338;53.240;8.798;2023-08-08T04:41:20;13.10;99.90
31765;DHT22;18338;53.240;8.798;2023-08-08T04:43:47;13.10;99.90
31765;DHT22;18338;53.240;8.798;2023-08-08T04:46:14;13.20;99.90
31765;DHT22;18338;53.240;8.798;2023-08-08T04:48:41;13.20;99.90
31765;DHT22;18338;53.240;8.798;2023-08-08T04:51:08;13.20;99.90
31765;DHT22;18338;53.240;8.798;2023-08-08T04:53:35;13.20;99.90
31765;DHT22;18338;53.240;8.798;2023-08-08T04:56:02;13.30;99.90
31765;DHT22;18338;53.240;8.798;2023-08-08T04:58:29;13.30;99.90
31765;DHT22;18338;53.240;8.798;2023-08-08T05:00:55;13.30;99.90
31765;DHT22;18338;53.240;8.798;2023-08-08T05:03:22;13.30;99.90
31765;DHT22;18338;53.240;8.798;2023-08-08T05:05:49;13.30;99.90
31765;DHT22;18338;53.240;8.798;2023-08-08T05:08:16;13.30;99.90
31765;DHT22;18338;53.240;8.798;2023-08-08T05:10:43;13.30;99.90
31765;DHT22;18338;53.240;8.798;2023-08-08T05:13:10;13.40;99.90
31765;DHT22;18338;53.240;8.798;2023-08-08T05:15:37;13.40;99.90
31765;DHT22;18338;53.240;8.798;2023-08-08T05:18:04;13.40;99.90
31765;DHT22;18338;53.240;8.798;2023-08-08T05:20:31;13.50;99.90
31765;DHT22;18338;53.240;8.798;2023-08-08T05:22:58;13.40;99.90
31765;DHT22;18338;53.240;8.798;2023-08-08T05:25:25;13.50;99.90
31765;DHT22;18338;53.240;8.798;2023-08-08T05:27:51;13.60;99.90
31765;DHT22;18338;53.240;8.798;2023-08-08T05:30:19;13.60;99.90
31765;DHT22;18338;53.240;8.798;2023-08-08T05:32:46;13.60;99.90
31765;DHT22;18338;53.240;8.798;2023-08-08T05:35:13;13.50;99.90
31765;DHT22;18338;53.240;8.798;2023-08-08T05:37:40;13.60;99.90
31765;DHT22;18338;53.240;8.798;2023-08-08T05:40:07;13.60;99.90
31765;DHT22;18338;53.240;8.798;2023-08-08T05:42:34;13.70;99.90
31765;DHT22;18338;53.240;8.798;2023-08-08T05:45:01;13.80;99.90
31765;DHT22;18338;53.240;8.798;2023-08-08T05:47:28;13.90;99.90
31765;DHT22;18338;53.240;8.798;2023-08-08T05:49:55;14.00;99.90
31765;DHT22;18338;53.240;8.798;2023-08-08T05:52:21;14.10;99.90
31765;DHT22;18338;53.240;8.798;2023-08-08T05:54:48;14.10;99.90
31765;DHT22;18338;53.240;8.798;2023-08-08T05:57:15;14.10;99.90
31765;DHT22;18338;53.240;8.798;2023-08-08T05:59:42;14.10;99.90
31765;DHT22;18338;53.240;8.798;2023-08-08T06:02:11;14.10;99.90
31765;DHT22;18338;53.240;8.798;2023-08-08T06:04:38;14.10;99.90
31765;DHT22;18338;53.240;8.798;2023-08-08T06:07:05;14.10;99.90
31765;DHT22;18338;53.240;8.798;2023-08-08T06:09:36;14.10;99.90
31765;DHT22;18338;53.240;8.798;2023-08-08T06:12:04;14.20;99.90
31765;DHT22;18338;53.240;8.798;2023-08-08T06:14:31;14.10;99.90
31765;DHT22;18338;53.240;8.798;2023-08-08T06:16:58;14.10;99.90
31765;DHT22;18338;53.240;8.798;2023-08-08T06:19:24;14.10;99.90
31765;DHT22;18338;53.240;8.798;2023-08-08T06:21:51;14.10;99.90
31765;DHT22;18338;53.240;8.798;2023-08-08T06:24:18;14.20;99.90
31765;DHT22;18338;53.240;8.798;2023-08-08T06:26:45;14.20;99.90
31765;DHT22;18338;53.240;8.798;2023-08-08T06:29:11;14.10;99.90
31765;DHT22;18338;53.240;8.798;2023-08-08T06:31:40;14.10;99.90
31765;DHT22;18338;53.240;8.798;2023-08-08T06:34:08;14.10;99.90
31765;DHT22;18338;53.240;8.798;2023-08-08T06:36:35;14.10;99.90
31765;DHT22;18338;53.240;8.798;2023-08-08T06:39:02;14.00;99.90
31765;DHT22;18338;53.240;8.798;2023-08-08T06:41:29;14.00;99.90
31765;DHT22;18338;53.240;8.798;2023-08-08T06:43:56;14.10;99.90
31765;DHT22;18338;53.240;8.798;2023-08-08T06:46:23;14.20;99.90
31765;DHT22;18338;53.240;8.798;2023-08-08T06:48:51;14.30;99.90
31765;DHT22;18338;53.240;8.798;2023-08-08T06:51:26;14.40;99.90
31765;DHT22;18338;53.240;8.798;2023-08-08T06:53:53;14.50;99.90
31765;DHT22;18338;53.240;8.798;2023-08-08T06:56:20;14.70;99.90
31765;DHT22;18338;53.240;8.798;2023-08-08T06:58:46;14.80;99.90
31765;DHT22;18338;53.240;8.798;2023-08-08T07:01:13;14.90;99.90
31765;DHT22;18338;53.240;8.798;2023-08-08T07:03:40;15.00;99.90
31765;DHT22;18338;53.240;8.798;2023-08-08T07:06:07;15.30;99.90
31765;DHT22;18338;53.240;8.798;2023-08-08T07:08:34;15.40;99.90
31765;DHT22;18338;53.240;8.798;2023-08-08T07:11:00;15.40;99.90
31765;DHT22;18338;53.240;8.798;2023-08-08T07:13:29;15.50;99.90
31765;DHT22;18338;53.240;8.798;2023-08-08T07:15:55;15.90;99.90
31765;DHT22;18338;53.240;8.798;2023-08-08T07:18:22;16.10;99.90
31765;DHT22;18338;53.240;8.798;2023-08-08T07:20:49;16.30;99.90
31765;DHT22;18338;53.240;8.798;2023-08-08T07:23:16;16.30;99.90
31765;DHT22;18338;53.240;8.798;2023-08-08T07:25:43;16.00;99.90
31765;DHT22;18338;53.240;8.798;2023-08-08T07:28:10;15.60;99.90
31765;DHT22;18338;53.240;8.798;2023-08-08T07:30:36;15.30;99.90
31765;DHT22;18338;53.240;8.798;2023-08-08T07:33:03;15.00;99.90
31765;DHT22;18338;53.240;8.798;2023-08-08T07:35:30;14.60;99.90
31765;DHT22;18338;53.240;8.798;2023-08-08T07:37:57;14.30;99.90
31765;DHT22;18338;53.240;8.798;2023-08-08T07:40:23;14.00;99.90
31765;DHT22;18338;53.240;8.798;2023-08-08T07:42:50;14.00;99.90
31765;DHT22;18338;53.240;8.798;2023-08-08T07:45:18;14.00;99.90
31765;DHT22;18338;53.240;8.798;2023-08-08T07:47:45;14.20;99.90
31765;DHT22;18338;53.240;8.798;2023-08-08T07:50:12;14.30;99.90
31765;DHT22;18338;53.240;8.798;2023-08-08T07:52:40;14.70;99.90
31765;DHT22;18338;53.240;8.798;2023-08-08T07:55:07;15.10;99.90
31765;DHT22;18338;53.240;8.798;2023-08-08T07:57:34;15.20;99.90
31765;DHT22;18338;53.240;8.798;2023-08-08T08:00:03;15.30;99.90
31765;DHT22;18338;53.240;8.798;2023-08-08T08:02:42;15.40;99.90
31765;DHT22;18338;53.240;8.798;2023-08-08T08:05:10;15.50;99.90
31765;DHT22;18338;53.240;8.798;2023-08-08T08:07:38;15.80;99.90
31765;DHT22;18338;53.240;8.798;2023-08-08T08:10:07;16.10;99.90
31765;DHT22;18338;53.240;8.798;2023-08-08T08:12:36;16.30;99.90
31765;DHT22;18338;53.240;8.798;2023-08-08T08:15:03;16.60;99.90
31765;DHT22;18338;53.240;8.798;2023-08-08T08:17:31;16.80;99.90
31765;DHT22;18338;53.240;8.798;2023-08-08T08:19:58;16.90;99.90
31765;DHT22;18338;53.240;8.798;2023-08-08T08:22:25;16.90;99.90
31765;DHT22;18338;53.240;8.798;2023-08-08T08:24:51;17.10;99.90
31765;DHT22;18338;53.240;8.798;2023-08-08T08:27:18;17.00;99.90
31765;DHT22;18338;53.240;8.798;2023-08-08T08:29:45;17.10;99.90
31765;DHT22;18338;53.240;8.798;2023-08-08T08:32:12;17.10;99.90
31765;DHT22;18338;53.240;8.798;2023-08-08T08:34:39;16.80;99.90
31765;DHT22;18338;53.240;8.798;2023-08-08T08:37:06;17.00;99.90
31765;DHT22;18338;53.240;8.798;2023-08-08T08:39:33;17.10;99.90
31765;DHT22;18338;53.240;8.798;2023-08-08T08:42:00;18.20;99.90
31765;DHT22;18338;53.240;8.798;2023-08-08T08:44:31;20.00;99.90
31765;DHT22;18338;53.240;8.798;2023-08-08T08:47:02;20.60;99.90
31765;DHT22;18338;53.240;8.798;2023-08-08T08:49:30;20.20;99.90
31765;DHT22;18338;53.240;8.798;2023-08-08T08:51:59;20.10;99.90
31765;DHT22;18338;53.240;8.798;2023-08-08T08:54:29;19.60;99.90
31765;DHT22;18338;53.240;8.798;2023-08-08T08:56:57;19.10;99.90
31765;DHT22;18338;53.240;8.798;2023-08-08T08:59:24;18.80;99.90
31765;DHT22;18338;53.240;8.798;2023-08-08T09:01:51;18.50;99.90
31765;DHT22;18338;53.240;8.798;2023-08-08T09:04:20;18.30;99.90
31765;DHT22;18338;53.240;8.798;2023-08-08T09:06:49;17.80;99.90
31765;DHT22;18338;53.240;8.798;2023-08-08T09:09:17;17.30;99.90
31765;DHT22;18338;53.240;8.798;2023-08-08T09:11:45;17.00;99.90
31765;DHT22;18338;53.240;8.798;2023-08-08T09:14:20;16.90;99.90
31765;DHT22;18338;53.240;8.798;2023-08-08T09:16:48;16.80;99.90
31765;DHT22;18338;53.240;8.798;2023-08-08T09:19:16;16.60;99.90
31765;DHT22;18338;53.240;8.798;2023-08-08T09:21:44;16.40;99.90
31765;DHT22;18338;53.240;8.798;2023-08-08T09:24:12;15.70;99.90
31765;DHT22;18338;53.240;8.798;2023-08-08T09:26:40;15.20;99.90
31765;DHT22;18338;53.240;8.798;2023-08-08T09:29:07;14.40;99.90
31765;DHT22;18338;53.240;8.798;2023-08-08T09:31:34;14.00;99.90
31765;DHT22;18338;53.240;8.798;2023-08-08T09:34:03;13.80;99.90
31765;DHT22;18338;53.240;8.798;2023-08-08T09:36:30;14.00;99.90
31765;DHT22;18338;53.240;8.798;2023-08-08T09:39:00;15.20;99.90
31765;DHT22;18338;53.240;8.798;2023-08-08T09:41:27;16.50;99.90
31765;DHT22;18338;53.240;8.798;2023-08-08T09:43:54;17.90;99.90
31765;DHT22;18338;53.240;8.798;2023-08-08T09:46:22;17.80;99.90
31765;DHT22;18338;53.240;8.798;2023-08-08T09:48:50;17.30;99.90
31765;DHT22;18338;53.240;8.798;2023-08-08T09:51:18;16.80;99.90
31765;DHT22;18338;53.240;8.798;2023-08-08T09:53:46;16.50;99.90
31765;DHT22;18338;53.240;8.798;2023-08-08T09:56:15;17.00;99.90
31765;DHT22;18338;53.240;8.798;2023-08-08T09:58:42;17.30;99.90
31765;DHT22;18338;53.240;8.798;2023-08-08T10:01:11;17.30;99.90
31765;DHT22;18338;53.240;8.798;2023-08-08T10:03:41;17.30;99.90
31765;DHT22;18338;53.240;8.798;2023-08-08T10:06:10;17.20;99.90
31765;DHT22;18338;53.240;8.798;2023-08-08T10:08:37;16.50;99.90
31765;DHT22;18338;53.240;8.798;2023-08-08T10:11:05;15.80;99.90
31765;DHT22;18338;53.240;8.798;2023-08-08T10:13:35;15.30;99.90
31765;DHT22;18338;53.240;8.798;2023-08-08T10:16:08;15.20;99.90
31765;DHT22;18338;53.240;8.798;2023-08-08T10:18:36;15.30;99.90
31765;DHT22;18338;53.240;8.798;2023-08-08T10:21:04;15.50;99.90
31765;DHT22;18338;53.240;8.798;2023-08-08T10:23:38;17.10;99.90
31765;DHT22;18338;53.240;8.798;2023-08-08T10:26:17;19.50;99.90
31765;DHT22;18338;53.240;8.798;2023-08-08T10:28:54;21.00;99.90
31765;DHT22;18338;53.240;8.798;2023-08-08T10:31:25;20.90;99.90
31765;DHT22;18338;53.240;8.798;2023-08-08T10:34:06;19.70;99.90
31765;DHT22;18338;53.240;8.798;2023-08-08T10:36:50;18.10;99.90
31765;DHT22;18338;53.240;8.798;2023-08-08T10:39:19;17.00;99.90
31765;DHT22;18338;53.240;8.798;2023-08-08T10:41:50;16.90;99.90
31765;DHT22;18338;53.240;8.798;2023-08-08T10:44:24;18.50;99.90
31765;DHT22;18338;53.240;8.798;2023-08-08T10:46:52;21.40;99.90
31765;DHT22;18338;53.240;8.798;2023-08-08T10:49:19;23.30;99.90
31765;DHT22;18338;53.240;8.798;2023-08-08T10:51:48;23.20;99.90
31765;DHT22;18338;53.240;8.798;2023-08-08T10:54:16;21.80;99.90
31765;DHT22;18338;53.240;8.798;2023-08-08T10:56:54;21.10;99.90
31765;DHT22;18338;53.240;8.798;2023-08-08T10:59:36;22.20;99.90
31765;DHT22;18338;53.240;8.798;2023-08-08T11:02:04;23.20;99.90
31765;DHT22;18338;53.240;8.798;2023-08-08T11:04:30;20.90;99.90
31765;DHT22;18338;53.240;8.798;2023-08-08T11:06:59;19.50;99.90
31765;DHT22;18338;53.240;8.798;2023-08-08T11:09:26;18.80;99.90
31765;DHT22;18338;53.240;8.798;2023-08-08T11:11:53;18.60;99.90
31765;DHT22;18338;53.240;8.798;2023-08-08T11:14:21;18.10;99.90
31765;DHT22;18338;53.240;8.798;2023-08-08T11:16:49;17.70;99.90
31765;DHT22;18338;53.240;8.798;2023-08-08T11:19:21;17.60;99.90
31765;DHT22;18338;53.240;8.798;2023-08-08T11:21:52;17.30;99.90
31765;DHT22;18338;53.240;8.798;2023-08-08T11:24:19;16.80;99.90
31765;DHT22;18338;53.240;8.798;2023-08-08T11:26:46;16.30;99.90
31765;DHT22;18338;53.240;8.798;2023-08-08T11:29:14;15.90;99.90
31765;DHT22;18338;53.240;8.798;2023-08-08T11:31:41;15.70;99.90
31765;DHT22;18338;53.240;8.798;2023-08-08T11:34:08;16.30;99.90
31765;DHT22;18338;53.240;8.798;2023-08-08T11:36:37;18.00;99.90
31765;DHT22;18338;53.240;8.798;2023-08-08T11:39:05;21.00;99.90
31765;DHT22;18338;53.240;8.798;2023-08-08T11:41:37;22.40;99.90
31765;DHT22;18338;53.240;8.798;2023-08-08T11:44:05;23.20;99.90
31765;DHT22;18338;53.240;8.798;2023-08-08T11:46:32;22.10;99.90
31765;DHT22;18338;53.240;8.798;2023-08-08T11:49:06;21.90;99.90
31765;DHT22;18338;53.240;8.798;2023-08-08T11:51:34;21.20;99.90
31765;DHT22;18338;53.240;8.798;2023-08-08T11:54:03;21.40;99.90
31765;DHT22;18338;53.240;8.798;2023-08-08T11:56:33;21.20;99.90
31765;DHT22;18338;53.240;8.798;2023-08-08T11:59:00;20.50;99.90
31765;DHT22;18338;53.240;8.798;2023-08-08T12:01:30;19.20;99.90
31765;DHT22;18338;53.240;8.798;2023-08-08T12:03:57;18.40;99.90
31765;DHT22;18338;53.240;8.798;2023-08-08T12:06:28;17.60;99.90
31765;DHT22;18338;53.240;8.798;2023-08-08T12:08:55;17.50;99.90
31765;DHT22;18338;53.240;8.798;2023-08-08T12:11:22;17.70;99.90
31765;DHT22;18338;53.240;8.798;2023-08-08T12:13:59;18.80;99.90
31765;DHT22;18338;53.240;8.798;2023-08-08T12:16:28;19.00;99.90
31765;DHT22;18338;53.240;8.798;2023-08-08T12:19:04;19.40;99.90
31765;DHT22;18338;53.240;8.798;2023-08-08T12:21:33;20.20;99.90
31765;DHT22;18338;53.240;8.798;2023-08-08T12:24:00;21.10;99.90
31765;DHT22;18338;53.240;8.798;2023-08-08T12:26:26;22.00;99.90
31765;DHT22;18338;53.240;8.798;2023-08-08T12:28:53;22.80;99.90
31765;DHT22;18338;53.240;8.798;2023-08-08T12:31:21;22.70;99.90
31765;DHT22;18338;53.240;8.798;2023-08-08T12:33:47;23.30;99.90
31765;DHT22;18338;53.240;8.798;2023-08-08T12:36:15;24.10;99.90
31765;DHT22;18338;53.240;8.798;2023-08-08T12:38:42;24.70;99.90
31765;DHT22;18338;53.240;8.798;2023-08-08T12:41:09;24.30;99.90
31765;DHT22;18338;53.240;8.798;2023-08-08T12:43:37;23.90;99.90
31765;DHT22;18338;53.240;8.798;2023-08-08T12:46:04;24.00;99.90
31765;DHT22;18338;53.240;8.798;2023-08-08T12:48:31;25.00;99.90
31765;DHT22;18338;53.240;8.798;2023-08-08T12:50:58;26.20;99.90
31765;DHT22;18338;53.240;8.798;2023-08-08T12:53:25;25.20;99.90
31765;DHT22;18338;53.240;8.798;2023-08-08T12:55:51;25.90;99.90
31765;DHT22;18338;53.240;8.798;2023-08-08T12:58:18;25.10;99.90
31765;DHT22;18338;53.240;8.798;2023-08-08T13:00:45;23.50;99.90
31765;DHT22;18338;53.240;8.798;2023-08-08T13:03:13;23.90;99.90
31765;DHT22;18338;53.240;8.798;2023-08-08T13:05:40;25.60;99.90
31765;DHT22;18338;53.240;8.798;2023-08-08T13:08:06;24.40;99.90
31765;DHT22;18338;53.240;8.798;2023-08-08T13:10:33;23.50;99.90
31765;DHT22;18338;53.240;8.798;2023-08-08T13:13:00;23.70;99.90
31765;DHT22;18338;53.240;8.798;2023-08-08T13:15:27;23.80;99.90
31765;DHT22;18338;53.240;8.798;2023-08-08T13:17:54;24.10;99.90
31765;DHT22;18338;53.240;8.798;2023-08-08T13:20:35;25.10;99.90
31765;DHT22;18338;53.240;8.798;2023-08-08T13:23:01;24.90;96.60
31765;DHT22;18338;53.240;8.798;2023-08-08T13:25:28;24.90;97.70
31765;DHT22;18338;53.240;8.798;2023-08-08T13:27:55;25.30;94.10
31765;DHT22;18338;53.240;8.798;2023-08-08T13:30:26;24.80;96.00
31765;DHT22;18338;53.240;8.798;2023-08-08T13:32:54;24.60;93.30
31765;DHT22;18338;53.240;8.798;2023-08-08T13:35:21;23.80;93.70
31765;DHT22;18338;53.240;8.798;2023-08-08T13:37:48;23.30;94.80
31765;DHT22;18338;53.240;8.798;2023-08-08T13:40:18;23.10;94.30
31765;DHT22;18338;53.240;8.798;2023-08-08T13:42:44;22.70;96.10
31765;DHT22;18338;53.240;8.798;2023-08-08T13:45:14;22.70;96.70
31765;DHT22;18338;53.240;8.798;2023-08-08T13:47:41;23.20;96.40
31765;DHT22;18338;53.240;8.798;2023-08-08T13:50:08;23.70;95.90
31765;DHT22;18338;53.240;8.798;2023-08-08T13:52:35;24.50;95.70
31765;DHT22;18338;53.240;8.798;2023-08-08T13:55:02;24.00;95.60
31765;DHT22;18338;53.240;8.798;2023-08-08T13:57:29;23.90;98.20
31765;DHT22;18338;53.240;8.798;2023-08-08T13:59:55;22.90;97.90
31765;DHT22;18338;53.240;8.798;2023-08-08T14:02:22;23.40;97.10
31765;DHT22;18338;53.240;8.798;2023-08-08T14:04:49;22.50;98.00
31765;DHT22;18338;53.240;8.798;2023-08-08T14:07:15;22.30;98.00
31765;DHT22;18338;53.240;8.798;2023-08-08T14:09:42;21.70;99.50
31765;DHT22;18338;53.240;8.798;2023-08-08T14:12:09;22.00;99.90
31765;DHT22;18338;53.240;8.798;2023-08-08T14:14:36;21.90;99.50
31765;DHT22;18338;53.240;8.798;2023-08-08T14:17:04;21.60;99.90
31765;DHT22;18338;53.240;8.798;2023-08-08T14:19:31;22.10;99.80
31765;DHT22;18338;53.240;8.798;2023-08-08T14:21:58;22.70;99.50
31765;DHT22;18338;53.240;8.798;2023-08-08T14:24:57;23.30;99.00
31765;DHT22;18338;53.240;8.798;2023-08-08T14:27:24;23.30;98.80
31765;DHT22;18338;53.240;8.798;2023-08-08T14:29:51;23.40;98.40
31765;DHT22;18338;53.240;8.798;2023-08-08T14:32:18;23.70;99.60
31765;DHT22;18338;53.240;8.798;2023-08-08T14:34:45;24.00;96.20
31765;DHT22;18338;53.240;8.798;2023-08-08T14:37:12;23.70;97.50
31765;DHT22;18338;53.240;8.798;2023-08-08T14:39:39;23.70;97.50
31765;DHT22;18338;53.240;8.798;2023-08-08T14:42:06;22.40;99.80
31765;DHT22;18338;53.240;8.798;2023-08-08T14:44:34;21.00;99.90
31765;DHT22;18338;53.240;8.798;2023-08-08T14:47:01;20.00;99.90
31765;DHT22;18338;53.240;8.798;2023-08-08T14:49:28;19.60;99.90
31765;DHT22;18338;53.240;8.798;2023-08-08T14:51:55;19.90;99.90
31765;DHT22;18338;53.240;8.798;2023-08-08T14:54:22;20.60;99.90
31765;DHT22;18338;53.240;8.798;2023-08-08T14:56:50;21.80;99.90
31765;DHT22;18338;53.240;8.798;2023-08-08T14:59:17;22.70;99.90
31765;DHT22;18338;53.240;8.798;2023-08-08T15:01:44;23.20;99.90
31765;DHT22;18338;53.240;8.798;2023-08-08T15:04:12;23.20;99.90
31765;DHT22;18338;53.240;8.798;2023-08-08T15:06:40;23.50;99.90
31765;DHT22;18338;53.240;8.798;2023-08-08T15:09:08;23.80;99.60
31765;DHT22;18338;53.240;8.798;2023-08-08T15:11:35;24.00;96.90
31765;DHT22;18338;53.240;8.798;2023-08-08T15:14:02;23.20;96.30
31765;DHT22;18338;53.240;8.798;2023-08-08T15:16:29;22.70;98.10
31765;DHT22;18338;53.240;8.798;2023-08-08T15:18:56;21.20;98.80
31765;DHT22;18338;53.240;8.798;2023-08-08T15:21:23;21.00;99.90
31765;DHT22;18338;53.240;8.798;2023-08-08T15:23:51;22.00;99.90
31765;DHT22;18338;53.240;8.798;2023-08-08T15:26:18;23.10;98.80
31765;DHT22;18338;53.240;8.798;2023-08-08T15:28:47;23.00;98.00
31765;DHT22;18338;53.240;8.798;2023-08-08T15:31:15;23.10;98.30
31765;DHT22;18338;53.240;8.798;2023-08-08T15:33:43;21.90;99.20
31765;DHT22;18338;53.240;8.798;2023-08-08T15:36:18;21.20;99.90